Time;durP1;ratioP1;P1;durP2;ratioP2;P2;SDS_P1;SDS_P2;PMS_P1;PMS_P2;Temp;Humidity;BMP_temperature;BMP_pressure;BME280_temperature;BME280_humidity;BME280_pressure;Samples;Min_cycle;Max_cycle;Signal;HPM_P1;HPM_P2
2023/08/22 00:01:56;;;;;;;;;;;;;;;16.91;100.00;102067.84;5018716;28;19967;-86
2023/08/22 00:04:41;;;;;;;;;;;;;;;16.93;100.00;102072.16;5015005;28;19995;-85
2023/08/22 00:07:27;;;;;;;;;;;;;;;16.92;100.00;102073.13;4999423;28;19929;-85
2023/08/22 00:10:13;;;;;;;;;;;;;;;16.93;100.00;102080.19;5000941;28;19999;-86
2023/08/22 00:12:59;;;;;;;;;;;;;;;16.93;100.00;102079.31;4995900;28;19931;-83
2023/08/22 00:15:46;;;;;;;;;;;;;;;16.93;100.00;102082.84;5015078;28;19924;-87
2023/08/22 00:18:32;;;;;;;;;;;;;;;16.93;100.00;102088.22;5000052;28;19929;-86
2023/08/22 00:21:17;;;;;;;;;;;;;;;16.93;100.00;102090.88;4997846;28;20560;-86
2023/08/22 00:24:03;;;;;;;;;;;;;;;16.92;100.00;102085.59;5013431;28;20036;-86
2023/08/22 00:26:49;;;;;;;;;;;;;;;16.91;100.00;102086.56;5011303;28;19935;-87
2023/08/22 00:29:34;;;;;;;;;;;;;;;16.87;100.00;102088.53;4996262;28;19929;-85
2023/08/22 00:32:20;;;;;;;;;;;;;;;16.83;100.00;102084.28;4984250;28;19920;-86
2023/08/22 00:35:05;;;;;;;;;;;;;;;16.80;100.00;102076.44;5013100;28;20403;-84
2023/08/22 00:37:51;;;;;;;;;;;;;;;16.79;100.00;102067.53;5013736;28;20026;-85
2023/08/22 00:40:37;;;;;;;;;;;;;;;16.77;100.00;102068.59;5011021;28;19929;-85
2023/08/22 00:43:22;;;;;;;;;;;;;;;16.76;100.00;102059.69;4983908;28;20002;-86
2023/08/22 00:46:08;;;;;;;;;;;;;;;16.74;100.00;102050.00;4997439;28;20762;-86
2023/08/22 00:48:54;;;;;;;;;;;;;;;16.74;100.00;102039.31;4999262;28;20328;-85
2023/08/22 00:51:40;;;;;;;;;;;;;;;16.77;100.00;102048.03;4984459;28;19987;-85
2023/08/22 00:54:26;;;;;;;;;;;;;;;16.77;100.00;102058.72;5000357;28;20023;-86
2023/08/22 00:57:12;;;;;;;;;;;;;;;16.80;100.00;102055.03;5016120;28;19931;-85
2023/08/22 00:59:58;;;;;;;;;;;;;;;16.79;100.00;102058.66;4987422;28;20058;-86
2023/08/22 01:02:44;;;;;;;;;;;;;;;16.80;100.00;102049.69;4999146;28;19928;-85
2023/08/22 01:05:30;;;;;;;;;;;;;;;16.80;100.00;102049.69;4995248;28;19991;-86
2023/08/22 01:08:19;;;;;;;;;;;;;;;16.81;100.00;102038.03;5010098;28;19928;-85
2023/08/22 01:11:14;;;;;;;;;;;;;;;16.81;100.00;102035.38;4997996;28;19925;-85
2023/08/22 01:14:01;;;;;;;;;;;;;;;16.81;100.00;102027.34;4981796;28;19928;-85
2023/08/22 01:16:47;;;;;;;;;;;;;;;16.79;100.00;102022.06;4999206;28;19941;-85
2023/08/22 01:19:33;;;;;;;;;;;;;;;16.78;100.00;102030.19;4997618;28;19968;-86
2023/08/22 01:22:23;;;;;;;;;;;;;;;16.76;100.00;102021.38;4997518;28;19971;-85
2023/08/22 01:25:09;;;;;;;;;;;;;;;16.73;100.00;102027.78;4997928;28;19944;-85
2023/08/22 01:27:55;;;;;;;;;;;;;;;16.72;100.00;102031.38;5010839;28;20372;-84
2023/08/22 01:30:41;;;;;;;;;;;;;;;16.72;100.00;102030.50;5011981;28;21899;-85
2023/08/22 01:33:27;;;;;;;;;;;;;;;16.69;100.00;102031.53;4997025;28;20513;-85
2023/08/22 01:36:12;;;;;;;;;;;;;;;16.68;100.00;102024.47;4998474;28;19932;-84
2023/08/22 01:38:59;;;;;;;;;;;;;;;16.68;100.00;102029.81;5002683;28;19929;-85
2023/08/22 01:41:45;;;;;;;;;;;;;;;16.66;100.00;102015.66;5000118;28;20002;-86
2023/08/22 01:44:31;;;;;;;;;;;;;;;16.64;100.00;102015.75;4986820;28;20056;-84
2023/08/22 01:47:16;;;;;;;;;;;;;;;16.62;100.00;102004.25;5016910;28;19925;-84
2023/08/22 01:50:03;;;;;;;;;;;;;;;16.59;100.00;102014.25;5001706;28;19937;-85
2023/08/22 01:52:48;;;;;;;;;;;;;;;16.54;100.00;102019.84;5018305;28;19929;-84
2023/08/22 01:55:34;;;;;;;;;;;;;;;16.50;100.00;102018.28;5020038;28;19994;-85
2023/08/22 01:58:19;;;;;;;;;;;;;;;16.43;100.00;102015.03;5018279;28;20006;-84
2023/08/22 02:01:09;;;;;;;;;;;;;;;16.38;100.00;102012.63;5016913;28;20954;-84
2023/08/22 02:03:54;;;;;;;;;;;;;;;16.36;100.00;102014.50;4999083;28;19954;-84
2023/08/22 02:06:40;;;;;;;;;;;;;;;16.33;100.00;102006.63;4999165;28;20368;-84
2023/08/22 02:09:25;;;;;;;;;;;;;;;16.29;100.00;102002.41;5013600;28;20320;-85
2023/08/22 02:12:11;;;;;;;;;;;;;;;16.26;100.00;101997.22;5015117;28;19925;-84
2023/08/22 02:14:57;;;;;;;;;;;;;;;16.23;100.00;102000.06;5014839;28;19959;-84
2023/08/22 02:17:43;;;;;;;;;;;;;;;16.19;100.00;102006.50;5013613;28;19998;-84
2023/08/22 02:20:28;;;;;;;;;;;;;;;16.13;100.00;101997.84;5014161;28;19925;-85
2023/08/22 02:23:14;;;;;;;;;;;;;;;16.12;100.00;102000.59;5012366;28;19971;-84
2023/08/22 02:26:02;;;;;;;;;;;;;;;16.06;100.00;101999.09;5000798;28;19928;-84
2023/08/22 02:28:52;;;;;;;;;;;;;;;16.06;100.00;101995.56;5000049;28;19925;-84
2023/08/22 02:31:38;;;;;;;;;;;;;;;16.04;100.00;101992.97;5014472;28;19921;-84
2023/08/22 02:34:24;;;;;;;;;;;;;;;16.03;100.00;101993.91;5015411;28;19947;-84
2023/08/22 02:37:10;;;;;;;;;;;;;;;16.01;100.00;101993.97;4999189;28;19928;-85
2023/08/22 02:39:55;;;;;;;;;;;;;;;15.99;100.00;101990.53;5010945;28;19932;-86
2023/08/22 02:42:41;;;;;;;;;;;;;;;15.98;100.00;101995.94;4998846;28;20032;-85
2023/08/22 02:45:27;;;;;;;;;;;;;;;15.97;100.00;101991.56;5012264;28;20834;-85
2023/08/22 02:48:13;;;;;;;;;;;;;;;15.96;100.00;101997.84;5015137;28;19929;-84
2023/08/22 02:50:58;;;;;;;;;;;;;;;15.95;100.00;101996.13;5014835;28;20443;-84
2023/08/22 02:53:44;;;;;;;;;;;;;;;15.93;100.00;102003.31;4983960;28;19935;-84
2023/08/22 02:56:29;;;;;;;;;;;;;;;15.89;100.00;101989.22;4997782;28;19983;-84
2023/08/22 02:59:20;;;;;;;;;;;;;;;15.87;100.00;102001.78;5014658;28;21772;-86
2023/08/22 03:02:05;;;;;;;;;;;;;;;15.85;100.00;101999.19;4998433;28;19965;-86
2023/08/22 03:04:52;;;;;;;;;;;;;;;15.81;100.00;102002.97;4997248;28;20291;-84
2023/08/22 03:07:37;;;;;;;;;;;;;;;15.77;100.00;102005.84;4997765;28;19928;-87
2023/08/22 03:10:23;;;;;;;;;;;;;;;15.71;100.00;102001.69;5013976;28;19929;-86
2023/08/22 03:13:09;;;;;;;;;;;;;;;15.67;100.00;101997.41;5005550;28;22426;-86
2023/08/22 03:15:54;;;;;;;;;;;;;;;15.64;100.00;101997.59;4997107;28;19940;-86
2023/08/22 03:18:41;;;;;;;;;;;;;;;15.59;100.00;101993.31;4990161;28;19929;-86
2023/08/22 03:21:27;;;;;;;;;;;;;;;15.56;100.00;101988.16;5003250;28;20303;-86
2023/08/22 03:24:12;;;;;;;;;;;;;;;15.56;100.00;101980.13;5003369;28;19925;-86
2023/08/22 03:26:58;;;;;;;;;;;;;;;15.56;100.00;101985.47;4996082;28;19995;-86
2023/08/22 03:29:43;;;;;;;;;;;;;;;15.56;100.00;101979.25;5008389;28;19929;-86
2023/08/22 03:32:29;;;;;;;;;;;;;;;15.56;100.00;101977.47;5001078;28;19965;-85
2023/08/22 03:35:15;;;;;;;;;;;;;;;15.55;100.00;101973.06;4998248;28;19921;-86
2023/08/22 03:38:00;;;;;;;;;;;;;;;15.55;100.00;101969.53;5002863;28;19951;-85
2023/08/22 03:40:46;;;;;;;;;;;;;;;15.56;100.00;101966.78;4997685;28;19929;-86
2023/08/22 03:43:32;;;;;;;;;;;;;;;15.57;100.00;101968.53;4997087;28;20703;-85
2023/08/22 03:46:17;;;;;;;;;;;;;;;15.55;100.00;101969.53;4996038;28;20004;-84
2023/08/22 03:49:03;;;;;;;;;;;;;;;15.52;100.00;101973.22;4986144;28;19929;-86
2023/08/22 03:51:49;;;;;;;;;;;;;;;15.49;100.00;101970.69;5001811;28;19928;-86
2023/08/22 03:54:34;;;;;;;;;;;;;;;15.48;100.00;101975.16;5002776;28;19920;-86
2023/08/22 03:57:20;;;;;;;;;;;;;;;15.46;100.00;101978.84;5003638;28;19968;-86
2023/08/22 04:00:06;;;;;;;;;;;;;;;15.42;100.00;101969.28;5012957;28;20445;-86
2023/08/22 04:02:55;;;;;;;;;;;;;;;15.40;100.00;101976.47;5004660;28;19945;-86
2023/08/22 04:05:42;;;;;;;;;;;;;;;15.37;100.00;101973.97;4984267;28;19971;-86
2023/08/22 04:08:27;;;;;;;;;;;;;;;15.36;100.00;101980.22;4998888;28;19947;-86
2023/08/22 04:11:13;;;;;;;;;;;;;;;15.33;100.00;101970.56;5009222;28;19964;-86
2023/08/22 04:13:58;;;;;;;;;;;;;;;15.32;100.00;101964.34;5006672;28;19929;-85
2023/08/22 04:16:44;;;;;;;;;;;;;;;15.35;100.00;101963.34;4996197;28;20445;-85
2023/08/22 04:19:33;;;;;;;;;;;;;;;15.36;100.00;101964.22;4994666;28;19928;-86
2023/08/22 04:22:18;;;;;;;;;;;;;;;15.31;100.00;101962.63;4997086;28;19925;-85
2023/08/22 04:25:04;;;;;;;;;;;;;;;15.28;100.00;101957.47;4983898;28;19925;-85
2023/08/22 04:27:50;;;;;;;;;;;;;;;15.25;100.00;101959.41;4997180;28;19976;-85
2023/08/22 04:30:36;;;;;;;;;;;;;;;15.23;100.00;101964.81;4993562;28;19925;-85
2023/08/22 04:33:21;;;;;;;;;;;;;;;15.19;100.00;101961.41;4998481;28;19983;-87
2023/08/22 04:36:07;;;;;;;;;;;;;;;15.18;100.00;101950.81;4997435;28;20372;-85
2023/08/22 04:38:53;;;;;;;;;;;;;;;15.18;100.00;101966.81;5010162;28;20412;-86
2023/08/22 04:41:38;;;;;;;;;;;;;;;15.16;100.00;101963.38;4996518;28;19936;-86
2023/08/22 04:44:24;;;;;;;;;;;;;;;15.13;100.00;101975.03;4997019;28;19925;-86
2023/08/22 04:47:10;;;;;;;;;;;;;;;15.14;100.00;101957.25;4994903;28;19924;-86
2023/08/22 04:49:55;;;;;;;;;;;;;;;15.13;100.00;101964.38;4999120;28;19929;-86
2023/08/22 04:52:41;;;;;;;;;;;;;;;15.11;100.00;101968.03;5006878;28;20012;-87
2023/08/22 04:55:27;;;;;;;;;;;;;;;15.12;100.00;101959.97;4997650;28;19936;-86
2023/08/22 04:58:12;;;;;;;;;;;;;;;15.14;100.00;101968.75;5000311;28;20015;-87
2023/08/22 05:00:58;;;;;;;;;;;;;;;15.15;100.00;101956.31;5003953;28;19935;-86
2023/08/22 05:03:45;;;;;;;;;;;;;;;15.17;100.00;101959.75;4984966;28;19921;-86
2023/08/22 05:06:31;;;;;;;;;;;;;;;15.19;100.00;101960.53;4998977;28;19925;-86
2023/08/22 05:09:16;;;;;;;;;;;;;;;15.20;100.00;101955.13;4997439;28;19930;-86
2023/08/22 05:12:02;;;;;;;;;;;;;;;15.24;100.00;101957.69;4999737;28;19925;-86
2023/08/22 05:14:48;;;;;;;;;;;;;;;15.27;100.00;101961.06;5004898;28;20415;-86
2023/08/22 05:17:34;;;;;;;;;;;;;;;15.30;100.00;101960.91;5017749;28;20450;-86
2023/08/22 05:20:20;;;;;;;;;;;;;;;15.34;100.00;101967.84;5006114;28;19921;-86
2023/08/22 05:23:05;;;;;;;;;;;;;;;15.38;100.00;101973.88;5021458;28;19936;-85
2023/08/22 05:25:51;;;;;;;;;;;;;;;15.42;100.00;101971.94;5005479;28;19921;-86
2023/08/22 05:28:37;;;;;;;;;;;;;;;15.47;100.00;101968.09;4990755;28;19920;-87
2023/08/22 05:31:23;;;;;;;;;;;;;;;15.52;100.00;101961.69;5002443;28;19924;-86
2023/08/22 05:34:09;;;;;;;;;;;;;;;15.56;100.00;101964.13;5000987;28;19971;-80
2023/08/22 05:36:54;;;;;;;;;;;;;;;15.62;100.00;101965.63;5015895;28;20385;-78
2023/08/22 05:39:40;;;;;;;;;;;;;;;15.70;100.00;101960.75;4999826;28;19968;-79
2023/08/22 05:42:26;;;;;;;;;;;;;;;15.79;100.00;101966.59;4998612;28;19924;-79
2023/08/22 05:45:12;;;;;;;;;;;;;;;15.85;100.00;101959.13;5014261;28;19929;-81
2023/08/22 05:47:57;;;;;;;;;;;;;;;15.93;100.00;101957.91;5015705;28;19959;-79
2023/08/22 05:50:43;;;;;;;;;;;;;;;16.00;100.00;101959.34;5014368;28;19952;-79
2023/08/22 05:53:29;;;;;;;;;;;;;;;16.07;100.00;101949.22;5016337;28;19936;-79
2023/08/22 05:56:14;;;;;;;;;;;;;;;16.15;100.00;101958.56;4990019;28;19975;-79
2023/08/22 05:59:00;;;;;;;;;;;;;;;16.24;100.00;101956.34;5018158;28;20383;-79
2023/08/22 06:01:49;;;;;;;;;;;;;;;16.33;100.00;101950.53;5017222;28;19925;-79
2023/08/22 06:04:35;;;;;;;;;;;;;;;16.43;100.00;101959.81;5002668;28;20287;-79
2023/08/22 06:07:20;;;;;;;;;;;;;;;16.54;100.00;101969.03;5004472;28;20351;-79
2023/08/22 06:10:06;;;;;;;;;;;;;;;16.61;100.00;101962.41;4977792;28;20112;-79
2023/08/22 06:12:52;;;;;;;;;;;;;;;16.67;100.00;101961.25;4989045;28;19928;-79
2023/08/22 06:15:38;;;;;;;;;;;;;;;16.70;100.00;101956.59;4996250;28;20547;-79
2023/08/22 06:18:23;;;;;;;;;;;;;;;16.77;100.00;101957.13;4997868;28;19929;-79
2023/08/22 06:21:09;;;;;;;;;;;;;;;16.92;100.00;101951.88;4996857;28;20028;-79
2023/08/22 06:23:56;;;;;;;;;;;;;;;17.14;100.00;101964.97;5000347;28;19932;-79
2023/08/22 06:26:42;;;;;;;;;;;;;;;17.35;100.00;101970.06;5009181;28;19926;-79
2023/08/22 06:29:28;;;;;;;;;;;;;;;17.53;100.00;101972.66;5000696;28;19921;-79
2023/08/22 06:32:14;;;;;;;;;;;;;;;17.65;100.00;101964.78;4996368;28;20143;-80
2023/08/22 06:34:59;;;;;;;;;;;;;;;17.78;100.00;101962.22;4984985;28;19931;-79
2023/08/22 06:37:45;;;;;;;;;;;;;;;17.84;100.00;101966.38;4973378;28;20367;-79
2023/08/22 06:40:34;;;;;;;;;;;;;;;17.87;100.00;101970.69;4985013;28;20015;-79
2023/08/22 06:43:22;;;;;;;;;;;;;;;17.90;100.00;101968.69;4988307;28;19928;-79
2023/08/22 06:46:07;;;;;;;;;;;;;;;17.95;100.00;101979.13;4989206;28;19984;-80
2023/08/22 06:48:53;;;;;;;;;;;;;;;18.02;100.00;101979.63;4986866;28;20632;-79
2023/08/22 06:51:39;;;;;;;;;;;;;;;18.14;100.00;101978.09;4994353;28;19936;-80
2023/08/22 06:54:24;;;;;;;;;;;;;;;18.27;100.00;101972.84;4985077;28;20023;-80
2023/08/22 06:57:10;;;;;;;;;;;;;;;18.40;100.00;101970.28;4991137;28;20059;-78
2023/08/22 06:59:56;;;;;;;;;;;;;;;18.51;100.00;101972.31;4987515;28;19975;-79
2023/08/22 07:02:42;;;;;;;;;;;;;;;18.58;100.00;101984.38;4985150;28;19929;-78
2023/08/22 07:05:27;;;;;;;;;;;;;;;18.66;100.00;101982.09;4988390;28;20690;-80
2023/08/22 07:08:13;;;;;;;;;;;;;;;18.77;100.00;101986.78;4988507;28;19925;-79
2023/08/22 07:11:00;;;;;;;;;;;;;;;18.85;100.00;101989.84;4987128;28;21926;-80
2023/08/22 07:13:45;;;;;;;;;;;;;;;18.92;100.00;101984.09;4999165;28;19925;-77
2023/08/22 07:16:31;;;;;;;;;;;;;;;18.96;100.00;101985.63;4992031;28;19928;-79
2023/08/22 07:19:17;;;;;;;;;;;;;;;18.95;100.00;101983.91;5008827;28;19975;-79
2023/08/22 07:22:03;;;;;;;;;;;;;;;18.97;100.00;101992.72;4991689;28;19929;-79
2023/08/22 07:24:48;;;;;;;;;;;;;;;18.98;100.00;101989.06;4988281;28;20295;-80
2023/08/22 07:27:34;;;;;;;;;;;;;;;18.99;100.00;101986.31;5007598;28;19924;-81
2023/08/22 07:30:23;;;;;;;;;;;;;;;19.05;100.00;101981.50;5005287;28;20466;-80
2023/08/22 07:33:08;;;;;;;;;;;;;;;19.13;100.00;101981.91;4996074;28;19928;-80
2023/08/22 07:35:54;;;;;;;;;;;;;;;19.22;100.00;101981.31;5007106;28;20360;-79
2023/08/22 07:38:40;;;;;;;;;;;;;;;19.31;100.00;101989.72;4979724;28;19927;-81
2023/08/22 07:41:25;;;;;;;;;;;;;;;19.38;100.00;101983.00;5001766;28;20296;-80
2023/08/22 07:44:14;;;;;;;;;;;;;;;19.44;100.00;101985.28;5003983;28;20589;-80
2023/08/22 07:47:00;;;;;;;;;;;;;;;19.52;100.00;101977.56;4988355;28;20512;-82
2023/08/22 07:49:46;;;;;;;;;;;;;;;19.60;100.00;101976.22;5002710;28;19925;-81
2023/08/22 07:52:31;;;;;;;;;;;;;;;19.67;100.00;101973.03;4986458;28;20051;-80
2023/08/22 07:55:17;;;;;;;;;;;;;;;19.82;100.00;101983.69;4984485;28;19931;-82
2023/08/22 07:58:03;;;;;;;;;;;;;;;19.97;100.00;101994.41;4985927;28;20012;-80
2023/08/22 08:00:49;;;;;;;;;;;;;;;20.05;100.00;101984.88;5000125;28;19964;-81
2023/08/22 08:03:35;;;;;;;;;;;;;;;20.19;100.00;101988.44;4997591;28;19925;-79
2023/08/22 08:06:20;;;;;;;;;;;;;;;20.38;100.00;101981.81;5000908;28;19932;-80
2023/08/22 08:09:07;;;;;;;;;;;;;;;20.62;100.00;101982.78;4991073;28;19928;-78
2023/08/22 08:11:53;;;;;;;;;;;;;;;20.88;100.00;101981.94;5006079;28;19933;-78
2023/08/22 08:14:38;;;;;;;;;;;;;;;21.19;100.00;101986.91;5007120;28;19936;-80
2023/08/22 08:17:25;;;;;;;;;;;;;;;21.50;100.00;101996.28;4987010;28;19924;-80
2023/08/22 08:20:11;;;;;;;;;;;;;;;21.75;100.00;101991.81;4985980;28;19925;-81
2023/08/22 08:22:57;;;;;;;;;;;;;;;21.98;100.00;101991.88;5005194;28;19925;-79
2023/08/22 08:25:43;;;;;;;;;;;;;;;22.23;100.00;101987.31;4986032;28;20447;-81
2023/08/22 08:28:30;;;;;;;;;;;;;;;22.44;100.00;101997.41;4992566;28;19925;-80
2023/08/22 08:31:15;;;;;;;;;;;;;;;22.41;100.00;101995.81;5003486;28;20071;-79
2023/08/22 08:34:01;;;;;;;;;;;;;;;22.38;100.00;101993.34;4989267;28;19925;-77
2023/08/22 08:36:47;;;;;;;;;;;;;;;22.52;100.00;101989.59;4987504;28;19924;-80
2023/08/22 08:39:32;;;;;;;;;;;;;;;22.72;100.00;101989.88;5004676;28;20062;-80
2023/08/22 08:42:18;;;;;;;;;;;;;;;22.70;100.00;101997.22;5003187;28;20485;-80
2023/08/22 08:45:07;;;;;;;;;;;;;;;22.65;100.00;101997.56;5007799;28;19924;-78
2023/08/22 08:47:52;;;;;;;;;;;;;;;22.64;100.00;101985.94;4993627;28;19928;-79
2023/08/22 08:50:38;;;;;;;;;;;;;;;22.67;100.00;101989.38;5012010;28;20019;-79
2023/08/22 08:53:24;;;;;;;;;;;;;;;22.63;100.00;101986.06;4994691;28;20420;-79
2023/08/22 08:56:11;;;;;;;;;;;;;;;22.57;100.00;101986.53;5003755;28;20316;-79
2023/08/22 08:58:56;;;;;;;;;;;;;;;22.45;100.00;101985.63;5007588;28;20491;-79
2023/08/22 09:01:42;;;;;;;;;;;;;;;22.32;100.00;101980.31;4998350;28;19932;-81
2023/08/22 09:04:27;;;;;;;;;;;;;;;22.20;100.00;101985.72;5004638;28;19983;-80
2023/08/22 09:07:13;;;;;;;;;;;;;;;22.09;100.00;101978.47;4997793;28;19929;-79
2023/08/22 09:10:00;;;;;;;;;;;;;;;21.94;100.00;101982.31;5010346;28;19936;-80
2023/08/22 09:12:46;;;;;;;;;;;;;;;21.86;100.00;101982.03;5013385;28;19987;-82
2023/08/22 09:15:32;;;;;;;;;;;;;;;21.93;100.00;101989.56;5001691;28;20530;-79
2023/08/22 09:18:17;;;;;;;;;;;;;;;22.13;100.00;101991.69;4998674;28;19933;-80
2023/08/22 09:21:07;;;;;;;;;;;;;;;22.33;100.00;101991.00;4990333;28;20529;-82
2023/08/22 09:23:56;;;;;;;;;;;;;;;22.54;100.00;101986.78;5001790;28;19932;-81
2023/08/22 09:26:45;;;;;;;;;;;;;;;22.77;100.00;101988.50;4992724;28;20382;-83
2023/08/22 09:29:32;;;;;;;;;;;;;;;22.89;100.00;101975.03;4999863;28;19964;-83
2023/08/22 09:32:19;;;;;;;;;;;;;;;22.99;100.00;101985.94;5011298;28;19947;-82
2023/08/22 09:35:06;;;;;;;;;;;;;;;22.90;100.00;101999.19;4998268;28;19974;-80
2023/08/22 09:37:51;;;;;;;;;;;;;;;22.73;100.00;101999.69;4994257;28;19921;-78
2023/08/22 09:40:48;;;;;;;;;;;;;;;22.59;100.00;101990.84;5009017;28;20575;-77
2023/08/22 09:43:39;;;;;;;;;;;;;;;22.69;100.00;101982.00;5009369;28;20518;-76
2023/08/22 09:46:25;;;;;;;;;;;;;;;22.92;100.00;101985.56;4994086;28;19925;-77
2023/08/22 09:49:12;;;;;;;;;;;;;;;23.08;100.00;101985.19;4993434;28;20060;-77
2023/08/22 09:51:58;;;;;;;;;;;;;;;23.20;100.00;101981.47;5004628;28;20063;-76
2023/08/22 09:54:44;;;;;;;;;;;;;;;23.18;100.00;101979.88;5006567;28;19933;-77
2023/08/22 09:57:30;;;;;;;;;;;;;;;23.11;100.00;101990.34;4986683;28;20011;-77
2023/08/22 10:00:16;;;;;;;;;;;;;;;23.08;100.00;101982.47;4987970;28;20096;-79
2023/08/22 10:03:02;;;;;;;;;;;;;;;23.21;100.00;101974.25;5002858;28;20415;-78
2023/08/22 10:05:49;;;;;;;;;;;;;;;23.43;100.00;101969.81;5008148;28;20182;-78
2023/08/22 10:08:35;;;;;;;;;;;;;;;23.55;100.00;101982.28;5004113;28;19932;-76
2023/08/22 10:11:20;;;;;;;;;;;;;;;23.60;100.00;101990.00;4984950;28;20541;-78
2023/08/22 10:14:06;;;;;;;;;;;;;;;23.55;100.00;101987.69;5007610;28;20299;-78
2023/08/22 10:16:53;;;;;;;;;;;;;;;23.47;100.00;101990.16;4987351;28;20517;-78
2023/08/22 10:19:40;;;;;;;;;;;;;;;23.53;100.00;101989.66;4989179;28;19925;-76
2023/08/22 10:22:26;;;;;;;;;;;;;;;23.65;100.00;101987.78;5000428;28;19929;-77
2023/08/22 10:25:11;;;;;;;;;;;;;;;23.72;100.00;101994.41;4986804;28;19920;-78
2023/08/22 10:27:57;;;;;;;;;;;;;;;23.72;100.00;101999.81;5002403;28;20706;-77
2023/08/22 10:31:02;;;;;;;;;;;;;;;23.62;100.00;101996.13;4987667;28;19925;-77
2023/08/22 10:33:59;;;;;;;;;;;;;;;23.55;100.00;101993.09;4992512;28;19929;-77
2023/08/22 10:37:05;;;;;;;;;;;;;;;23.54;100.00;101985.13;4996545;28;20074;-75
2023/08/22 10:39:50;;;;;;;;;;;;;;;23.43;100.00;101989.56;5006872;28;20679;-77
2023/08/22 10:42:38;;;;;;;;;;;;;;;23.43;100.00;101984.16;5013342;28;20078;-77
2023/08/22 10:45:24;;;;;;;;;;;;;;;23.50;100.00;101983.63;5015018;28;20533;-76
2023/08/22 10:48:11;;;;;;;;;;;;;;;23.52;99.55;101981.69;4977569;28;19929;-76
2023/08/22 10:51:05;;;;;;;;;;;;;;;23.53;98.78;101972.59;5004927;28;20491;-77
2023/08/22 10:53:52;;;;;;;;;;;;;;;23.53;99.90;101978.00;4996188;28;19931;-76
2023/08/22 10:56:37;;;;;;;;;;;;;;;23.52;100.00;101973.59;5005136;28;19932;-77
2023/08/22 10:59:23;;;;;;;;;;;;;;;23.54;99.56;101980.56;4995275;28;20328;-77
2023/08/22 11:02:13;;;;;;;;;;;;;;;23.49;98.72;101990.91;5002640;28;20016;-76
2023/08/22 11:05:00;;;;;;;;;;;;;;;23.45;100.00;101984.03;5006131;28;19983;-76
2023/08/22 11:07:46;;;;;;;;;;;;;;;23.52;100.00;101984.41;4999322;28;20238;-76
2023/08/22 11:10:32;;;;;;;;;;;;;;;23.55;100.00;101987.69;5001403;28;20537;-77
2023/08/22 11:13:18;;;;;;;;;;;;;;;23.62;100.00;101988.03;4990929;28;19925;-77
2023/08/22 11:16:08;;;;;;;;;;;;;;;23.64;100.00;101986.03;5003345;28;19929;-77
2023/08/22 11:18:53;;;;;;;;;;;;;;;23.52;100.00;101977.13;5006844;28;19931;-76
2023/08/22 11:21:39;;;;;;;;;;;;;;;23.42;100.00;101990.53;4986529;28;19925;-77
2023/08/22 11:24:26;;;;;;;;;;;;;;;23.49;100.00;101979.22;5001941;28;19956;-78
2023/08/22 11:27:12;;;;;;;;;;;;;;;23.58;100.00;101978.44;5002459;28;19928;-78
2023/08/22 11:29:58;;;;;;;;;;;;;;;23.76;100.00;101988.72;5002704;28;19922;-76
2023/08/22 11:32:44;;;;;;;;;;;;;;;23.89;100.00;101978.59;4982316;28;20642;-77
2023/08/22 11:35:31;;;;;;;;;;;;;;;24.00;100.00;101972.25;5001803;28;21177;-76
2023/08/22 11:38:16;;;;;;;;;;;;;;;24.11;100.00;101984.88;4998769;28;19925;-77
2023/08/22 11:41:04;;;;;;;;;;;;;;;24.25;100.00;101986.41;4984549;28;19960;-77
2023/08/22 11:43:50;;;;;;;;;;;;;;;24.43;100.00;101994.78;4992828;28;19933;-76
2023/08/22 11:46:42;;;;;;;;;;;;;;;24.55;98.99;101991.00;4972814;28;20657;-77
2023/08/22 11:49:28;;;;;;;;;;;;;;;24.58;98.43;101987.19;4988732;28;20398;-76
2023/08/22 11:52:13;;;;;;;;;;;;;;;24.60;96.48;101992.44;4998260;28;20632;-77
2023/08/22 11:55:06;;;;;;;;;;;;;;;24.64;95.30;101991.19;5001127;28;20310;-76
2023/08/22 11:58:12;;;;;;;;;;;;;;;24.66;93.85;101997.31;4986400;28;19925;-76
2023/08/22 12:00:57;;;;;;;;;;;;;;;24.55;92.79;102003.66;5002591;28;19925;-76
2023/08/22 12:03:47;;;;;;;;;;;;;;;24.53;93.44;102001.09;4989904;28;19921;-76
2023/08/22 12:06:34;;;;;;;;;;;;;;;24.37;92.18;102004.28;4985921;28;19925;-77
2023/08/22 12:09:21;;;;;;;;;;;;;;;24.18;91.68;101999.59;4986035;28;20384;-77
2023/08/22 12:12:08;;;;;;;;;;;;;;;24.05;91.52;102001.59;4999257;28;20896;-77
2023/08/22 12:14:53;;;;;;;;;;;;;;;23.90;94.72;102001.91;4993664;28;19935;-76
2023/08/22 12:17:42;;;;;;;;;;;;;;;23.82;96.54;101999.00;4984229;28;20019;-76
2023/08/22 12:20:40;;;;;;;;;;;;;;;23.80;91.90;102006.41;4985600;28;19992;-77
2023/08/22 12:23:26;;;;;;;;;;;;;;;23.71;93.46;101998.06;4984834;28;20012;-76
2023/08/22 12:26:12;;;;;;;;;;;;;;;23.58;93.31;102002.78;4982083;28;20327;-77
2023/08/22 12:28:58;;;;;;;;;;;;;;;23.48;91.61;102008.13;4988052;28;19925;-76
2023/08/22 12:31:43;;;;;;;;;;;;;;;23.45;94.13;102003.81;4988956;28;20951;-76
2023/08/22 12:34:31;;;;;;;;;;;;;;;23.61;95.14;101997.13;4991714;28;19929;-77
2023/08/22 12:37:17;;;;;;;;;;;;;;;23.79;93.29;102013.66;4988053;28;19929;-77
2023/08/22 12:40:04;;;;;;;;;;;;;;;23.77;90.39;102014.75;4990385;28;20047;-78
2023/08/22 12:42:53;;;;;;;;;;;;;;;23.65;92.74;102003.13;4994774;28;19948;-77
2023/08/22 12:45:39;;;;;;;;;;;;;;;23.62;92.71;102001.53;4987934;28;20763;-76
2023/08/22 12:48:25;;;;;;;;;;;;;;;23.60;91.91;102012.47;4991329;28;20047;-77
2023/08/22 12:51:11;;;;;;;;;;;;;;;23.51;92.36;102006.97;4986714;28;19929;-77
2023/08/22 12:53:56;;;;;;;;;;;;;;;23.41;94.29;102007.75;4989979;28;19940;-77
2023/08/22 12:56:45;;;;;;;;;;;;;;;23.42;93.99;102004.06;4988850;28;19928;-77
2023/08/22 12:59:30;;;;;;;;;;;;;;;23.49;94.52;102009.81;4987353;28;21788;-77
2023/08/22 13:02:16;;;;;;;;;;;;;;;23.55;95.18;102005.75;4991038;28;19929;-76
2023/08/22 13:05:05;;;;;;;;;;;;;;;23.64;94.76;102004.97;4985661;28;19924;-77
2023/08/22 13:07:52;;;;;;;;;;;;;;;23.69;95.79;101988.38;4987963;28;19999;-77
2023/08/22 13:10:38;;;;;;;;;;;;;;;23.81;94.45;102003.56;4982738;28;19948;-77
2023/08/22 13:13:23;;;;;;;;;;;;;;;23.80;92.33;101995.59;4986033;28;20424;-77
2023/08/22 13:16:10;;;;;;;;;;;;;;;23.76;91.74;101996.81;4989386;28;19925;-77
2023/08/22 13:18:56;;;;;;;;;;;;;;;23.67;91.91;101996.63;4985098;28;21929;-77
2023/08/22 13:21:41;;;;;;;;;;;;;;;23.73;95.73;101996.09;4985832;28;20403;-78
2023/08/22 13:24:27;;;;;;;;;;;;;;;23.83;92.17;101998.91;4980412;28;19940;-78
2023/08/22 13:27:13;;;;;;;;;;;;;;;23.86;90.25;101997.78;4985591;28;21489;-77
2023/08/22 13:29:58;;;;;;;;;;;;;;;23.90;90.94;102001.91;4989109;28;19932;-77
2023/08/22 13:32:47;;;;;;;;;;;;;;;24.00;91.28;102002.88;4990808;28;19935;-76
2023/08/22 13:35:33;;;;;;;;;;;;;;;24.01;85.75;101993.78;4989437;28;20447;-77
2023/08/22 13:38:19;;;;;;;;;;;;;;;23.95;90.58;101988.88;4993010;28;20324;-76
2023/08/22 13:41:10;;;;;;;;;;;;;;;23.92;90.27;101991.84;4999097;28;19941;-76
2023/08/22 13:43:56;;;;;;;;;;;;;;;23.91;85.60;101987.41;4990683;28;19925;-76
2023/08/22 13:46:44;;;;;;;;;;;;;;;23.83;89.51;101987.22;4993393;28;19932;-77
2023/08/22 13:49:31;;;;;;;;;;;;;;;23.85;89.42;101985.22;4991203;28;19955;-77
2023/08/22 13:52:16;;;;;;;;;;;;;;;23.71;89.73;101989.94;4984174;28;20011;-77
2023/08/22 13:55:02;;;;;;;;;;;;;;;23.64;90.45;101983.34;4987895;28;21762;-77
2023/08/22 13:57:51;;;;;;;;;;;;;;;23.59;93.28;101977.50;4990764;28;19920;-81
2023/08/22 14:00:36;;;;;;;;;;;;;;;23.56;89.23;101980.44;4997030;28;19929;-81
2023/08/22 14:03:22;;;;;;;;;;;;;;;23.57;92.57;101979.44;4996194;28;19929;-80
2023/08/22 14:06:08;;;;;;;;;;;;;;;23.71;91.41;101976.44;4984417;28;19921;-80